Time;durP1;ratioP1;P1;durP2;ratioP2;P2;SDS_P1;SDS_P2;PMS_P1;PMS_P2;Temp;Humidity;BMP_temperature;BMP_pressure;BME280_temperature;BME280_humidity;BME280_pressure;Samples;Min_cycle;Max_cycle;Signal;HPM_P1;HPM_P2
2023/06/06 00:01:18;;;;;;;9.93;9.17;;;16.70;99.90;;;;;;4970388;28;20436;-68
2023/06/06 00:03:48;;;;;;;6.00;5.60;;;16.60;99.90;;;;;;4966039;28;20184;-68
2023/06/06 00:06:15;;;;;;;7.10;6.50;;;16.60;99.90;;;;;;4971927;28;20442;-68
2023/06/06 00:08:42;;;;;;;8.13;7.40;;;16.50;99.90;;;;;;4972451;28;20505;-68
2023/06/06 00:11:09;;;;;;;8.83;7.93;;;16.40;99.90;;;;;;4966958;28;20502;-68
2023/06/06 00:13:35;;;;;;;15.60;14.10;;;16.30;99.90;;;;;;4973186;28;20439;-68
2023/06/06 00:16:01;;;;;;;7.00;6.50;;;16.30;99.90;;;;;;4972869;28;20436;-68
2023/06/06 00:18:27;;;;;;;5.40;5.00;;;16.30;99.90;;;;;;4973612;28;20184;-68
2023/06/06 00:20:54;;;;;;;6.53;6.13;;;16.30;99.90;;;;;;4969924;28;20482;-68
2023/06/06 00:23:21;;;;;;;8.80;8.20;;;16.40;99.90;;;;;;4972749;28;20181;-67
2023/06/06 00:25:48;;;;;;;8.77;8.17;;;16.20;99.90;;;;;;4973608;28;20571;-68
2023/06/06 00:28:13;;;;;;;9.10;8.50;;;16.00;99.90;;;;;;4973124;28;20816;-69
2023/06/06 00:30:39;;;;;;;7.00;6.50;;;15.90;99.90;;;;;;4971890;28;20467;-68
2023/06/06 00:33:05;;;;;;;5.83;5.43;;;15.80;99.90;;;;;;4972473;28;20543;-68
2023/06/06 00:35:30;;;;;;;9.17;8.37;;;15.80;99.90;;;;;;4973370;28;20623;-68
2023/06/06 00:37:56;;;;;;;8.80;8.10;;;15.90;99.90;;;;;;4973290;28;20203;-68
2023/06/06 00:40:21;;;;;;;7.53;6.93;;;15.90;99.90;;;;;;4971072;28;20212;-66
2023/06/06 00:42:48;;;;;;;6.50;5.70;;;15.90;99.90;;;;;;4973372;28;20283;-68
2023/06/06 00:45:14;;;;;;;5.33;4.83;;;15.90;99.90;;;;;;4971325;28;20192;-67
2023/06/06 00:47:39;;;;;;;4.90;4.50;;;15.80;99.90;;;;;;4971403;28;20436;-68
2023/06/06 00:50:07;;;;;;;4.73;4.40;;;15.80;99.90;;;;;;4972148;28;20210;-68
2023/06/06 00:52:33;;;;;;;5.27;4.87;;;15.80;99.90;;;;;;4973226;28;20177;-66
2023/06/06 00:54:59;;;;;;;6.13;5.67;;;15.70;99.90;;;;;;4972649;28;20530;-65
2023/06/06 00:57:26;;;;;;;5.40;5.00;;;15.70;99.90;;;;;;4972694;28;20543;-67
2023/06/06 00:59:52;;;;;;;4.40;4.10;;;15.70;99.90;;;;;;4972624;28;20208;-68
2023/06/06 01:02:19;;;;;;;7.20;5.30;;;15.70;99.90;;;;;;4971682;28;20479;-66
2023/06/06 01:04:45;;;;;;;4.53;4.13;;;15.80;99.90;;;;;;4970149;28;20443;-68
2023/06/06 01:07:12;;;;;;;5.00;4.70;;;15.70;99.90;;;;;;4971104;28;20498;-68
2023/06/06 01:09:39;;;;;;;4.60;4.27;;;15.70;99.90;;;;;;4972369;28;20623;-67
2023/06/06 01:12:12;;;;;;;5.67;5.07;;;15.60;99.90;;;;;;4972726;28;20444;-68
2023/06/06 01:14:55;;;;;;;5.33;4.93;;;15.70;99.90;;;;;;4972386;28;20790;-67
2023/06/06 01:17:25;;;;;;;4.73;4.23;;;15.80;99.90;;;;;;4971983;28;20570;-68
2023/06/06 01:19:51;;;;;;;4.60;4.30;;;15.70;99.90;;;;;;4968194;28;20590;-67
2023/06/06 01:22:22;;;;;;;4.53;4.23;;;15.60;99.90;;;;;;4970570;28;20538;-67
2023/06/06 01:24:51;;;;;;;5.97;4.80;;;15.50;99.90;;;;;;4969543;28;20446;-67
2023/06/06 01:27:17;;;;;;;5.00;4.60;;;15.30;99.90;;;;;;4972051;28;20525;-68
2023/06/06 01:29:42;;;;;;;8.33;5.23;;;15.30;99.90;;;;;;4971793;28;20538;-68
2023/06/06 01:32:17;;;;;;;5.10;4.70;;;15.10;99.90;;;;;;4971499;28;20439;-67
2023/06/06 01:34:52;;;;;;;5.33;4.93;;;15.10;99.90;;;;;;4971498;28;20176;-67
2023/06/06 01:37:35;;;;;;;5.27;4.80;;;15.00;99.90;;;;;;4970903;28;20442;-69
2023/06/06 01:40:05;;;;;;;5.50;5.10;;;15.00;99.90;;;;;;4972153;28;20465;-68
2023/06/06 01:42:35;;;;;;;4.10;3.80;;;14.90;99.90;;;;;;4971919;28;20471;-68
2023/06/06 01:45:01;;;;;;;4.70;4.40;;;14.80;99.90;;;;;;4971447;28;20494;-68
2023/06/06 01:47:27;;;;;;;4.47;4.10;;;14.80;99.90;;;;;;4971992;28;20443;-67
2023/06/06 01:49:53;;;;;;;4.70;4.30;;;14.70;99.90;;;;;;4969869;28;21064;-68
2023/06/06 01:52:21;;;;;;;6.77;4.77;;;14.70;99.90;;;;;;4966423;28;20478;-68
2023/06/06 01:54:47;;;;;;;6.10;5.43;;;14.80;99.90;;;;;;4972641;28;20177;-69
2023/06/06 01:57:12;;;;;;;4.53;4.23;;;14.80;99.90;;;;;;4972554;28;20436;-68
2023/06/06 01:59:38;;;;;;;5.87;5.13;;;14.80;99.90;;;;;;4971444;28;20200;-68
2023/06/06 02:02:04;;;;;;;5.50;5.10;;;14.80;99.90;;;;;;4968312;28;20192;-68
2023/06/06 02:04:30;;;;;;;4.23;4.03;;;14.90;99.90;;;;;;4971937;28;20446;-67
2023/06/06 02:06:56;;;;;;;6.00;5.50;;;14.80;99.90;;;;;;4970328;28;20799;-68
2023/06/06 02:09:21;;;;;;;5.70;4.93;;;14.70;99.90;;;;;;4971057;28;20283;-67
2023/06/06 02:11:47;;;;;;;5.07;4.67;;;14.70;99.90;;;;;;4970789;28;20490;-67
2023/06/06 02:14:15;;;;;;;5.67;5.07;;;14.70;99.90;;;;;;4972225;28;20822;-68
2023/06/06 02:16:41;;;;;;;5.90;5.33;;;14.80;99.90;;;;;;4972277;28;20185;-68
2023/06/06 02:19:06;;;;;;;6.67;4.57;;;14.70;99.90;;;;;;4972113;28;20443;-68
2023/06/06 02:21:32;;;;;;;5.10;4.60;;;14.70;99.90;;;;;;4970924;28;20554;-67
2023/06/06 02:23:59;;;;;;;6.07;5.57;;;14.70;99.90;;;;;;4971175;28;20212;-68
2023/06/06 02:26:24;;;;;;;4.50;4.13;;;14.60;99.90;;;;;;4971932;28;20539;-66
2023/06/06 02:28:50;;;;;;;5.13;4.83;;;14.60;99.90;;;;;;4972111;28;20196;-68
2023/06/06 02:31:16;;;;;;;5.10;4.70;;;14.50;99.90;;;;;;4972505;28;20266;-68
2023/06/06 02:33:42;;;;;;;4.70;4.30;;;14.40;99.90;;;;;;4972494;28;20524;-68
2023/06/06 02:36:08;;;;;;;4.90;4.50;;;14.30;99.90;;;;;;4970654;28;20523;-68
2023/06/06 02:38:34;;;;;;;4.80;4.40;;;14.30;99.90;;;;;;4971080;28;20231;-68
2023/06/06 02:40:59;;;;;;;6.10;5.10;;;14.30;99.90;;;;;;4974337;28;20463;-68
2023/06/06 02:43:25;;;;;;;5.53;5.07;;;14.20;99.90;;;;;;4973370;28;20238;-69
2023/06/06 02:45:51;;;;;;;5.27;4.90;;;14.20;99.90;;;;;;4974112;28;20275;-67
2023/06/06 02:48:16;;;;;;;6.70;6.00;;;14.10;99.90;;;;;;4974510;28;20238;-67
2023/06/06 02:50:42;;;;;;;5.40;4.90;;;14.10;99.90;;;;;;4975449;28;20219;-68
2023/06/06 02:53:07;;;;;;;5.40;5.00;;;14.10;99.90;;;;;;4975731;28;20185;-68
2023/06/06 02:55:33;;;;;;;5.77;4.40;;;14.10;99.90;;;;;;4973513;28;20646;-68
2023/06/06 02:57:59;;;;;;;5.20;4.80;;;14.20;99.90;;;;;;4975369;28;20440;-68
2023/06/06 03:00:24;;;;;;;5.77;5.30;;;14.20;99.90;;;;;;4973659;28;20299;-68
2023/06/06 03:02:50;;;;;;;4.60;4.30;;;14.10;99.90;;;;;;4973940;28;20188;-68
2023/06/06 03:05:17;;;;;;;5.07;4.50;;;14.00;99.90;;;;;;4974490;28;20581;-68
2023/06/06 03:07:42;;;;;;;6.87;5.60;;;14.00;99.90;;;;;;4974315;28;20184;-68
2023/06/06 03:10:08;;;;;;;5.00;4.60;;;13.90;99.90;;;;;;4974559;28;20486;-69
2023/06/06 03:12:34;;;;;;;5.10;4.70;;;13.90;99.90;;;;;;4973003;28;21641;-68
2023/06/06 03:15:00;;;;;;;5.57;4.90;;;13.90;99.90;;;;;;4975145;28;20439;-68
2023/06/06 03:17:25;;;;;;;5.90;5.30;;;13.80;99.90;;;;;;4973583;28;20190;-67
2023/06/06 03:19:51;;;;;;;6.00;5.50;;;13.80;99.90;;;;;;4973789;28;20222;-69
2023/06/06 03:22:17;;;;;;;5.53;5.03;;;13.80;99.90;;;;;;4973756;28;20650;-64
2023/06/06 03:24:46;;;;;;;5.30;4.80;;;13.80;99.90;;;;;;4974675;28;20180;-68
2023/06/06 03:27:13;;;;;;;5.93;5.33;;;13.80;99.90;;;;;;4972061;28;20435;-68
2023/06/06 03:29:39;;;;;;;5.53;5.10;;;13.80;99.90;;;;;;4972674;28;20961;-67
2023/06/06 03:32:05;;;;;;;5.73;5.03;;;13.80;99.90;;;;;;4974718;28;20440;-68
2023/06/06 03:34:32;;;;;;;4.70;4.40;;;13.80;99.90;;;;;;4972510;28;20470;-68
2023/06/06 03:36:58;;;;;;;5.87;5.37;;;13.80;99.90;;;;;;4973947;28;20471;-68
2023/06/06 03:39:24;;;;;;;5.63;5.13;;;13.70;99.90;;;;;;4966291;28;20463;-68
2023/06/06 03:41:50;;;;;;;5.33;4.83;;;13.70;99.90;;;;;;4974344;28;20537;-68
2023/06/06 03:44:15;;;;;;;5.90;5.40;;;13.60;99.90;;;;;;4971722;28;20475;-67
2023/06/06 03:46:41;;;;;;;8.80;7.20;;;13.60;99.90;;;;;;4971670;28;20188;-66
2023/06/06 03:49:07;;;;;;;10.63;8.63;;;13.50;99.90;;;;;;4973828;28;20186;-69
2023/06/06 03:51:32;;;;;;;6.23;5.73;;;13.40;99.90;;;;;;4974313;28;20681;-68
2023/06/06 03:53:58;;;;;;;5.60;5.13;;;13.40;99.90;;;;;;4974229;28;20180;-68
2023/06/06 03:56:23;;;;;;;6.47;5.97;;;13.40;99.90;;;;;;4966164;28;20176;-68
2023/06/06 03:58:49;;;;;;;7.53;6.87;;;13.50;99.90;;;;;;4972461;28;20596;-67
2023/06/06 04:01:15;;;;;;;6.23;5.73;;;13.50;99.90;;;;;;4973827;28;20200;-68
2023/06/06 04:03:42;;;;;;;7.30;6.70;;;13.60;99.90;;;;;;4972955;28;20959;-68
2023/06/06 04:06:08;;;;;;;7.83;6.00;;;13.60;99.90;;;;;;4972948;28;20176;-66
2023/06/06 04:08:33;;;;;;;6.47;5.97;;;13.70;99.90;;;;;;4973666;28;20936;-68
2023/06/06 04:10:59;;;;;;;5.77;5.27;;;13.70;99.90;;;;;;4970905;28;20467;-67
2023/06/06 04:13:25;;;;;;;6.07;5.60;;;13.90;99.90;;;;;;4972691;28;20182;-68
2023/06/06 04:15:50;;;;;;;5.73;5.33;;;14.00;99.90;;;;;;4973639;28;20275;-67
2023/06/06 04:18:16;;;;;;;5.40;4.90;;;14.20;99.90;;;;;;4972290;28;20216;-67
2023/06/06 04:20:43;;;;;;;5.73;5.33;;;14.30;99.90;;;;;;4973613;28;20697;-69
2023/06/06 04:23:09;;;;;;;7.67;6.93;;;14.40;99.90;;;;;;4972692;28;20188;-68
2023/06/06 04:25:34;;;;;;;7.00;6.40;;;14.50;99.90;;;;;;4972615;28;20443;-66
2023/06/06 04:28:00;;;;;;;6.80;6.20;;;14.70;99.90;;;;;;4971864;28;20188;-69
2023/06/06 04:30:29;;;;;;;5.43;4.93;;;14.90;99.90;;;;;;4972108;28;20208;-68
2023/06/06 04:32:56;;;;;;;5.73;5.23;;;14.90;99.90;;;;;;4969685;28;20657;-68
2023/06/06 04:35:22;;;;;;;6.90;6.20;;;15.00;99.90;;;;;;4973355;28;20435;-68
2023/06/06 04:37:47;;;;;;;6.60;5.90;;;14.90;99.90;;;;;;4972075;28;20442;-68
2023/06/06 04:40:14;;;;;;;5.87;5.30;;;14.90;99.90;;;;;;4972680;28;20211;-68
2023/06/06 04:42:39;;;;;;;6.73;5.80;;;15.00;99.90;;;;;;4966229;28;20196;-67
2023/06/06 04:45:06;;;;;;;8.73;5.73;;;15.30;99.90;;;;;;4971776;28;20941;-68
2023/06/06 04:47:32;;;;;;;5.70;5.20;;;15.50;99.90;;;;;;4971677;28;20191;-68
2023/06/06 04:49:58;;;;;;;6.37;5.83;;;15.80;99.90;;;;;;4972475;28;20988;-68
2023/06/06 04:52:24;;;;;;;5.73;5.23;;;16.00;99.90;;;;;;4973030;28;20443;-68
2023/06/06 04:54:51;;;;;;;6.37;5.77;;;16.10;99.90;;;;;;4971895;28;20435;-68
2023/06/06 04:57:17;;;;;;;6.00;5.53;;;16.30;99.90;;;;;;4973184;28;20443;-68
2023/06/06 04:59:53;;;;;;;7.37;5.97;;;16.50;99.90;;;;;;4971794;28;20587;-68
2023/06/06 05:02:23;;;;;;;6.50;6.10;;;16.70;99.90;;;;;;4972441;28;20172;-68
2023/06/06 05:04:53;;;;;;;6.50;5.70;;;16.80;99.90;;;;;;4970261;28;20435;-68
2023/06/06 05:07:19;;;;;;;7.33;6.40;;;17.00;99.90;;;;;;4971485;28;20440;-67
2023/06/06 05:09:45;;;;;;;6.50;5.77;;;17.10;99.90;;;;;;4971640;28;20455;-69
2023/06/06 05:12:10;;;;;;;7.87;6.57;;;17.10;99.90;;;;;;4972908;28;20439;-68
2023/06/06 05:14:36;;;;;;;6.53;6.03;;;17.20;99.90;;;;;;4968115;28;20197;-68
2023/06/06 05:17:02;;;;;;;7.40;5.70;;;17.30;99.90;;;;;;4970343;28;20176;-69
2023/06/06 05:19:27;;;;;;;5.83;5.43;;;17.40;99.90;;;;;;4993614;23;20986;-72
2023/06/06 05:21:53;;;;;;;8.60;7.80;;;17.60;99.90;;;;;;4975246;28;20208;-73
2023/06/06 05:24:19;;;;;;;5.90;5.40;;;17.80;99.90;;;;;;4972946;28;20587;-73
2023/06/06 05:26:44;;;;;;;5.63;5.23;;;18.00;99.90;;;;;;4974312;28;20219;-73
2023/06/06 05:29:10;;;;;;;6.00;5.57;;;17.90;99.90;;;;;;4972822;28;21478;-73
2023/06/06 05:31:36;;;;;;;6.03;5.63;;;18.10;99.90;;;;;;4955829;28;20218;-73
2023/06/06 05:34:03;;;;;;;5.70;5.23;;;18.10;99.90;;;;;;4974064;28;20190;-72
2023/06/06 05:36:28;;;;;;;8.53;5.83;;;18.10;99.90;;;;;;4974098;28;20454;-74
2023/06/06 05:38:54;;;;;;;6.20;5.70;;;18.30;99.90;;;;;;4974070;28;20431;-73
2023/06/06 05:41:20;;;;;;;7.10;6.50;;;18.60;99.90;;;;;;4971818;28;20204;-72
2023/06/06 05:43:47;;;;;;;5.90;5.40;;;18.40;99.90;;;;;;4970880;28;20215;-73
2023/06/06 05:46:13;;;;;;;6.43;5.70;;;18.60;99.90;;;;;;4954432;28;20534;-73
2023/06/06 05:48:38;;;;;;;6.10;5.50;;;18.70;99.90;;;;;;4972014;28;20443;-72
2023/06/06 05:51:04;;;;;;;5.70;5.17;;;18.80;99.90;;;;;;4966046;28;20918;-72
2023/06/06 05:53:30;;;;;;;5.33;4.83;;;19.00;99.90;;;;;;4973554;28;20577;-73
2023/06/06 05:55:55;;;;;;;9.00;5.00;;;19.10;99.90;;;;;;4974256;28;20172;-72
2023/06/06 05:58:21;;;;;;;7.00;5.40;;;19.20;99.90;;;;;;4969554;28;20177;-72
2023/06/06 06:00:47;;;;;;;6.73;6.20;;;19.30;99.90;;;;;;4972445;28;20224;-73
2023/06/06 06:03:12;;;;;;;7.63;7.00;;;19.30;99.90;;;;;;4968798;28;20187;-72
2023/06/06 06:05:38;;;;;;;7.00;5.70;;;19.40;99.90;;;;;;4970073;28;20203;-73
2023/06/06 06:08:06;;;;;;;5.40;5.00;;;19.40;99.90;;;;;;4971269;28;20172;-72
2023/06/06 06:10:34;;;;;;;5.70;5.23;;;19.50;99.90;;;;;;4969375;28;20817;-72
2023/06/06 06:13:00;;;;;;;5.23;4.93;;;19.70;99.90;;;;;;4972534;28;21006;-73
2023/06/06 06:15:26;;;;;;;6.37;5.40;;;19.70;99.90;;;;;;4975372;28;20525;-73
2023/06/06 06:17:52;;;;;;;5.90;5.20;;;19.80;99.90;;;;;;4975063;28;20203;-73
2023/06/06 06:20:19;;;;;;;5.40;5.00;;;20.00;99.90;;;;;;4971946;28;20498;-72
2023/06/06 06:22:45;;;;;;;5.20;4.80;;;20.10;99.90;;;;;;4973733;28;20447;-72
2023/06/06 06:25:13;;;;;;;4.93;4.50;;;20.30;99.90;;;;;;4975030;28;20450;-72
2023/06/06 06:27:43;;;;;;;7.40;5.73;;;20.40;99.90;;;;;;4973684;28;20456;-72
2023/06/06 06:30:10;;;;;;;6.27;5.67;;;20.40;99.90;;;;;;4969559;28;20463;-72
2023/06/06 06:32:38;;;;;;;5.67;5.17;;;20.00;99.90;;;;;;4967720;28;20437;-73
2023/06/06 06:35:05;;;;;;;5.27;4.90;;;19.90;99.90;;;;;;4971418;28;20464;-72
2023/06/06 06:37:32;;;;;;;9.23;5.57;;;19.60;99.90;;;;;;4971423;28;20444;-73
2023/06/06 06:40:00;;;;;;;5.13;4.63;;;19.40;99.90;;;;;;4975549;28;20502;-73
2023/06/06 06:42:26;;;;;;;5.70;5.30;;;19.50;99.90;;;;;;4969318;28;20951;-74
2023/06/06 06:44:53;;;;;;;6.40;4.60;;;19.70;99.90;;;;;;4976070;28;20472;-73
2023/06/06 06:47:19;;;;;;;5.13;4.70;;;19.40;99.90;;;;;;4976204;28;20172;-73
2023/06/06 06:49:44;;;;;;;5.57;5.17;;;19.10;99.90;;;;;;4968888;28;20493;-73
2023/06/06 06:52:11;;;;;;;5.77;5.27;;;19.20;99.90;;;;;;4975553;28;20268;-73
2023/06/06 06:54:52;;;;;;;4.77;4.47;;;19.50;99.90;;;;;;4958515;28;20630;-72
2023/06/06 06:57:19;;;;;;;5.47;4.90;;;19.70;99.90;;;;;;4976064;28;20506;-73
2023/06/06 06:59:45;;;;;;;5.50;5.03;;;19.70;99.90;;;;;;4974321;28;20557;-73
2023/06/06 07:02:11;;;;;;;6.30;5.30;;;19.90;99.90;;;;;;4974976;28;20530;-74
2023/06/06 07:04:37;;;;;;;6.07;5.57;;;20.20;99.90;;;;;;4979106;28;20583;-72
2023/06/06 07:07:03;;;;;;;5.40;5.00;;;20.40;99.90;;;;;;4973423;28;20185;-73
2023/06/06 07:09:28;;;;;;;5.80;4.70;;;20.50;99.90;;;;;;4967909;28;20207;-74
2023/06/06 07:11:54;;;;;;;5.57;5.07;;;20.60;99.90;;;;;;4970395;28;20474;-73
2023/06/06 07:14:20;;;;;;;5.27;4.87;;;20.80;99.90;;;;;;4970072;28;20185;-74
2023/06/06 07:16:48;;;;;;;6.23;5.50;;;21.00;99.90;;;;;;4971672;28;20727;-73
2023/06/06 07:19:13;;;;;;;4.90;4.50;;;21.30;99.90;;;;;;4974265;28;20451;-73
2023/06/06 07:21:39;;;;;;;4.97;4.57;;;21.20;99.90;;;;;;4968873;28;20523;-72
2023/06/06 07:24:05;;;;;;;4.60;4.20;;;21.40;99.90;;;;;;4971963;28;20625;-73
2023/06/06 07:26:31;;;;;;;4.67;4.27;;;21.60;99.90;;;;;;4974809;28;20190;-74
2023/06/06 07:28:56;;;;;;;4.67;4.17;;;21.90;99.90;;;;;;4975085;28;20530;-73
2023/06/06 07:31:22;;;;;;;5.17;4.77;;;22.10;99.90;;;;;;4974807;28;20220;-73
2023/06/06 07:33:48;;;;;;;6.13;5.53;;;22.20;99.90;;;;;;4973518;28;20187;-73
2023/06/06 07:36:13;;;;;;;5.50;5.10;;;21.90;99.90;;;;;;4970312;28;20169;-73
2023/06/06 07:38:39;;;;;;;5.00;4.60;;;21.80;99.90;;;;;;4974674;28;20412;-73
2023/06/06 07:41:05;;;;;;;5.40;5.00;;;21.90;99.90;;;;;;4975079;28;20200;-73
2023/06/06 07:43:31;;;;;;;5.43;5.03;;;21.70;99.90;;;;;;4973898;28;20424;-73
2023/06/06 07:45:56;;;;;;;5.00;4.70;;;21.80;99.90;;;;;;4975177;28;20204;-73
2023/06/06 07:48:22;;;;;;;5.13;4.73;;;22.10;99.90;;;;;;4972791;28;20274;-73
2023/06/06 07:50:47;;;;;;;5.17;4.70;;;22.40;99.90;;;;;;4969735;28;20204;-73
2023/06/06 07:53:13;;;;;;;4.40;4.10;;;22.50;99.90;;;;;;4972984;28;20183;-74
2023/06/06 07:55:38;;;;;;;4.20;3.90;;;22.70;99.90;;;;;;4973828;28;20190;-74
2023/06/06 07:58:10;;;;;;;5.73;5.27;;;23.00;98.40;;;;;;4974795;28;20176;-72
2023/06/06 08:00:36;;;;;;;4.97;4.37;;;23.20;97.60;;;;;;4974792;28;20198;-72
2023/06/06 08:03:01;;;;;;;4.93;4.57;;;23.40;97.20;;;;;;4973951;28;20470;-74
2023/06/06 08:05:27;;;;;;;6.33;5.00;;;23.60;96.20;;;;;;4972955;28;20467;-73
2023/06/06 08:07:53;;;;;;;5.50;5.00;;;23.60;96.30;;;;;;4974510;28;20244;-73
2023/06/06 08:10:18;;;;;;;5.50;4.43;;;23.70;95.40;;;;;;4972510;28;20237;-73
2023/06/06 08:12:45;;;;;;;4.97;4.57;;;23.70;95.80;;;;;;4970158;28;20941;-73
2023/06/06 08:15:11;;;;;;;5.63;5.10;;;23.80;94.80;;;;;;4957092;28;20200;-73
2023/06/06 08:17:37;;;;;;;5.70;4.40;;;23.90;94.40;;;;;;4973132;28;20474;-73
2023/06/06 08:20:06;;;;;;;4.97;4.00;;;24.10;94.40;;;;;;4972399;28;20259;-72
2023/06/06 08:22:33;;;;;;;4.63;4.23;;;24.30;94.00;;;;;;4974330;28;20622;-72
2023/06/06 08:25:04;;;;;;;4.00;3.70;;;24.50;92.80;;;;;;4970730;28;20435;-72
2023/06/06 08:27:29;;;;;;;5.40;4.90;;;24.70;92.00;;;;;;4974133;28;20448;-72
2023/06/06 08:29:55;;;;;;;4.80;4.40;;;24.80;92.00;;;;;;4973772;28;20466;-72
2023/06/06 08:32:20;;;;;;;4.53;4.13;;;25.00;91.00;;;;;;4979540;28;20211;-74
2023/06/06 08:34:46;;;;;;;4.50;4.10;;;25.00;88.50;;;;;;4973908;28;20176;-74
2023/06/06 08:37:11;;;;;;;4.23;3.93;;;25.00;89.60;;;;;;4973396;28;20184;-73
2023/06/06 08:39:38;;;;;;;4.47;4.17;;;25.00;89.50;;;;;;4946749;29;20546;-74
2023/06/06 08:42:09;;;;;;;5.03;4.50;;;24.90;89.20;;;;;;4973371;28;20211;-75
2023/06/06 08:44:35;;;;;;;4.83;4.30;;;25.00;89.50;;;;;;4979716;28;20426;-74
2023/06/06 08:47:02;;;;;;;4.73;4.30;;;25.10;87.70;;;;;;4983494;28;20937;-74
2023/06/06 08:49:30;;;;;;;4.87;4.47;;;25.30;87.70;;;;;;4972777;28;20526;-74
2023/06/06 08:51:58;;;;;;;6.60;4.57;;;25.40;86.60;;;;;;4973645;28;20562;-74
2023/06/06 08:54:24;;;;;;;4.73;4.40;;;25.60;83.80;;;;;;4973766;28;20419;-73
2023/06/06 08:56:51;;;;;;;5.00;4.60;;;25.50;82.90;;;;;;4972810;28;20435;-74
2023/06/06 08:59:18;;;;;;;7.70;4.20;;;25.50;84.60;;;;;;4968875;28;20423;-74
2023/06/06 09:01:44;;;;;;;5.33;4.93;;;25.60;83.90;;;;;;4972910;28;20459;-74
2023/06/06 09:04:13;;;;;;;5.10;4.70;;;25.50;85.00;;;;;;4970256;28;20433;-74
2023/06/06 09:06:43;;;;;;;5.30;4.80;;;25.90;83.90;;;;;;4965226;28;20427;-74
2023/06/06 09:09:09;;;;;;;5.37;4.90;;;26.20;81.40;;;;;;4965913;28;20471;-74
2023/06/06 09:11:35;;;;;;;5.00;4.60;;;26.30;80.10;;;;;;4971642;28;20463;-74
2023/06/06 09:14:01;;;;;;;6.47;4.57;;;26.40;79.80;;;;;;4966314;28;20219;-74
2023/06/06 09:16:27;;;;;;;5.47;4.93;;;26.60;79.20;;;;;;4973295;28;20461;-73
2023/06/06 09:18:56;;;;;;;5.60;5.10;;;26.50;79.80;;;;;;4973016;28;20172;-74
2023/06/06 09:21:22;;;;;;;6.40;5.87;;;26.50;79.40;;;;;;4973112;28;20490;-73
2023/06/06 09:23:52;;;;;;;5.70;5.30;;;26.50;79.20;;;;;;4970633;28;20436;-74
2023/06/06 09:26:19;;;;;;;5.90;5.40;;;26.80;78.20;;;;;;4973128;28;20204;-72
2023/06/06 09:28:45;;;;;;;5.73;5.23;;;27.00;77.90;;;;;;4972103;28;20451;-73
2023/06/06 09:31:30;;;;;;;5.40;4.90;;;27.10;77.90;;;;;;4972757;28;21473;-71
2023/06/06 09:34:02;;;;;;;5.63;5.13;;;27.10;77.90;;;;;;4971833;28;20828;-72
2023/06/06 09:36:29;;;;;;;6.00;5.43;;;27.40;77.10;;;;;;4965610;28;20416;-72
2023/06/06 09:39:02;;;;;;;6.60;6.10;;;27.00;76.50;;;;;;4972603;28;20423;-73
2023/06/06 09:41:27;;;;;;;8.03;5.17;;;27.30;77.00;;;;;;4973061;28;20459;-73
2023/06/06 09:43:53;;;;;;;6.13;5.40;;;27.80;75.20;;;;;;4971363;28;20470;-74
2023/06/06 09:46:18;;;;;;;5.77;5.27;;;27.90;74.10;;;;;;4969942;28;20608;-74
2023/06/06 09:49:02;;;;;;;5.50;5.00;;;28.30;75.10;;;;;;4964164;28;20267;-73
2023/06/06 09:51:31;;;;;;;6.03;5.43;;;28.80;72.10;;;;;;4972913;28;20208;-73
2023/06/06 09:54:00;;;;;;;5.73;5.10;;;28.50;71.30;;;;;;4972707;28;20436;-73
2023/06/06 09:56:29;;;;;;;7.03;5.40;;;29.10;70.60;;;;;;4970489;28;20439;-73
2023/06/06 09:58:56;;;;;;;6.00;5.50;;;30.10;67.60;;;;;;4969952;28;20445;-73
2023/06/06 10:01:31;;;;;;;5.23;4.83;;;30.60;64.60;;;;;;4971601;28;20546;-73
2023/06/06 10:03:57;;;;;;;5.77;4.77;;;30.90;60.70;;;;;;4969032;28;20894;-73
2023/06/06 10:06:26;;;;;;;5.37;4.87;;;31.60;58.50;;;;;;4967061;28;20444;-72
2023/06/06 10:08:54;;;;;;;5.83;5.33;;;31.90;57.80;;;;;;4972094;28;20428;-72
2023/06/06 10:11:21;;;;;;;6.10;5.50;;;32.70;56.30;;;;;;4969143;28;20992;-73
2023/06/06 10:13:49;;;;;;;5.50;5.00;;;33.00;55.40;;;;;;4968764;28;20474;-72
2023/06/06 10:16:16;;;;;;;5.87;5.37;;;33.30;52.60;;;;;;4965214;28;20527;-71
2023/06/06 10:18:44;;;;;;;5.73;5.27;;;33.70;52.80;;;;;;4964850;28;20440;-71
2023/06/06 10:21:11;;;;;;;5.80;4.83;;;33.80;51.10;;;;;;4967444;28;20514;-71
2023/06/06 10:23:36;;;;;;;5.10;4.80;;;34.00;49.70;;;;;;4964409;28;20440;-72
2023/06/06 10:26:04;;;;;;;6.13;5.63;;;33.50;49.50;;;;;;4961392;28;20444;-74
2023/06/06 10:28:39;;;;;;;6.57;5.10;;;32.70;48.70;;;;;;4969283;28;20200;-72
2023/06/06 10:31:07;;;;;;;5.13;4.63;;;30.20;49.20;;;;;;4955590;28;20936;-72
2023/06/06 10:33:49;;;;;;;6.10;5.50;;;30.70;50.40;;;;;;4962782;28;20427;-73
2023/06/06 10:36:18;;;;;;;5.37;4.97;;;32.60;50.00;;;;;;4962568;28;20520;-73
2023/06/06 10:39:18;;;;;;;5.67;5.27;;;34.20;47.00;;;;;;4953269;28;20937;-73
2023/06/06 10:41:59;;;;;;;5.30;5.00;;;34.30;47.10;;;;;;4960698;28;20459;-72
2023/06/06 10:44:43;;;;;;;6.20;5.70;;;34.90;46.30;;;;;;4958922;28;20428;-73
2023/06/06 10:47:27;;;;;;;4.43;4.03;;;35.80;45.40;;;;;;4953367;28;20424;-73
2023/06/06 10:50:13;;;;;;;6.20;4.77;;;36.40;42.90;;;;;;4967222;28;20491;-73
2023/06/06 10:52:54;;;;;;;5.30;4.90;;;36.60;41.50;;;;;;4962135;28;20976;-73
2023/06/06 10:55:23;;;;;;;5.43;5.00;;;36.70;41.80;;;;;;4969953;28;20509;-73
2023/06/06 10:58:06;;;;;;;6.70;4.53;;;37.10;40.90;;;;;;4970522;28;20780;-73
2023/06/06 11:00:34;;;;;;;5.53;5.10;;;36.50;40.10;;;;;;4966174;28;20459;-72
2023/06/06 11:03:10;;;;;;;5.00;4.60;;;36.30;41.10;;;;;;4969542;28;20439;-73
2023/06/06 11:06:01;;;;;;;5.27;4.77;;;36.60;40.50;;;;;;4973550;28;21314;-73
2023/06/06 11:08:36;;;;;;;5.87;5.07;;;36.30;38.80;;;;;;4972183;28;20467;-70
2023/06/06 11:11:22;;;;;;;5.63;5.23;;;36.80;39.30;;;;;;4972587;28;20462;-70
2023/06/06 11:13:58;;;;;;;5.70;5.30;;;38.20;36.50;;;;;;4971742;28;20431;-70
2023/06/06 11:16:39;;;;;;;5.40;5.00;;;37.60;35.70;;;;;;4972839;28;20518;-72
2023/06/06 11:19:08;;;;;;;6.23;5.67;;;38.80;33.80;;;;;;4970780;28;20454;-70
2023/06/06 11:21:36;;;;;;;5.37;4.73;;;39.10;33.20;;;;;;4970937;28;20483;-73
2023/06/06 11:24:02;;;;;;;5.20;4.80;;;38.90;33.00;;;;;;4972143;28;20447;-73
2023/06/06 11:26:28;;;;;;;5.27;4.77;;;37.70;33.20;;;;;;4970725;28;20455;-73
2023/06/06 11:28:58;;;;;;;6.40;6.00;;;36.20;34.80;;;;;;4972367;28;20455;-72
2023/06/06 11:31:24;;;;;;;5.43;4.80;;;37.80;34.00;;;;;;4971580;28;20259;-73
2023/06/06 11:33:50;;;;;;;5.40;5.00;;;37.30;33.90;;;;;;4972510;28;20828;-72
2023/06/06 11:36:17;;;;;;;6.07;4.90;;;35.70;34.60;;;;;;4971519;28;21550;-72
2023/06/06 11:38:42;;;;;;;6.17;5.57;;;34.20;36.10;;;;;;4971360;28;20971;-72
2023/06/06 11:41:09;;;;;;;5.17;4.73;;;32.10;37.30;;;;;;4973027;28;20455;-72
2023/06/06 11:43:35;;;;;;;5.63;4.97;;;31.20;39.30;;;;;;4972789;28;20179;-72
2023/06/06 11:46:05;;;;;;;5.50;5.00;;;30.40;38.70;;;;;;4973524;28;20443;-72
2023/06/06 11:48:30;;;;;;;6.10;5.60;;;30.20;39.40;;;;;;4971379;28;20475;-72
2023/06/06 11:50:56;;;;;;;5.97;5.57;;;31.80;39.40;;;;;;4970494;28;20498;-72
2023/06/06 11:53:32;;;;;;;5.40;5.03;;;34.50;36.50;;;;;;4972367;28;20188;-72
2023/06/06 11:55:58;;;;;;;5.70;5.20;;;35.50;34.80;;;;;;4973545;28;20191;-72
2023/06/06 11:58:24;;;;;;;5.90;5.37;;;34.60;33.40;;;;;;4968566;28;21222;-72
2023/06/06 12:00:56;;;;;;;5.90;5.10;;;34.10;33.90;;;;;;4971899;28;20486;-72
2023/06/06 12:03:22;;;;;;;4.90;4.50;;;34.00;33.80;;;;;;4966069;28;20619;-72
2023/06/06 12:05:59;;;;;;;5.10;4.60;;;35.80;34.20;;;;;;4970006;28;20515;-72
2023/06/06 12:08:25;;;;;;;4.30;4.00;;;37.90;32.40;;;;;;4969127;28;20612;-73
2023/06/06 12:10:51;;;;;;;4.60;4.23;;;37.50;29.80;;;;;;4967351;28;20901;-72
2023/06/06 12:13:33;;;;;;;4.60;4.30;;;37.70;29.90;;;;;;4970526;28;20451;-72
2023/06/06 12:15:58;;;;;;;5.33;4.63;;;36.40;30.00;;;;;;4971762;28;20176;-72
2023/06/06 12:18:24;;;;;;;5.57;5.10;;;35.50;30.00;;;;;;4967569;28;20494;-72
2023/06/06 12:20:50;;;;;;;7.27;4.37;;;35.70;30.60;;;;;;4970936;28;20561;-72
2023/06/06 12:23:26;;;;;;;4.47;4.17;;;36.70;30.40;;;;;;4969320;28;20526;-73
2023/06/06 12:25:57;;;;;;;5.00;4.70;;;38.20;30.00;;;;;;4970477;28;20184;-73
2023/06/06 12:28:23;;;;;;;4.97;4.57;;;38.90;29.60;;;;;;4970274;28;20446;-73
2023/06/06 12:30:51;;;;;;;4.87;4.23;;;39.80;28.90;;;;;;4971332;28;20518;-70
2023/06/06 12:33:18;;;;;;;5.07;4.70;;;40.20;28.90;;;;;;4968307;28;20776;-69
2023/06/06 12:35:45;;;;;;;5.60;5.10;;;41.40;30.20;;;;;;4966441;28;20440;-70
2023/06/06 12:38:21;;;;;;;4.53;4.23;;;41.20;30.10;;;;;;4969677;28;20486;-72
2023/06/06 12:40:55;;;;;;;4.37;4.07;;;41.60;30.00;;;;;;4971060;28;20467;-72
2023/06/06 12:43:21;;;;;;;4.97;4.57;;;39.90;30.50;;;;;;4969458;28;21108;-72
2023/06/06 12:45:46;;;;;;;5.07;4.77;;;38.00;31.80;;;;;;4966280;28;20461;-72
2023/06/06 12:48:11;;;;;;;5.30;4.80;;;38.00;31.80;;;;;;4967526;28;20189;-72